Time;durP1;ratioP1;P1;durP2;ratioP2;P2;SDS_P1;SDS_P2;PMS_P1;PMS_P2;Temp;Humidity;BMP_temperature;BMP_pressure;BME280_temperature;BME280_humidity;BME280_pressure;Samples;Min_cycle;Max_cycle;Signal;HPM_P1;HPM_P2
2022/01/27 00:05:56;;;;;;;39.55;21.48;;;5.60;99.90;;;;;;5049658;28;20041;-79
2022/01/27 00:08:30;;;;;;;41.17;22.30;;;5.60;99.90;;;;;;5051017;28;20038;-81
2022/01/27 00:13:29;;;;;;;40.03;20.75;;;5.60;99.90;;;;;;5050826;28;20049;-80
2022/01/27 00:16:10;;;;;;;35.40;19.85;;;5.60;99.90;;;;;;5068159;28;20172;-79
2022/01/27 00:18:36;;;;;;;38.72;21.70;;;5.60;99.90;;;;;;5067860;28;20119;-80
2022/01/27 00:21:02;;;;;;;42.28;23.00;;;5.60;99.90;;;;;;5067282;28;20090;-79
2022/01/27 00:23:27;;;;;;;42.83;22.92;;;5.60;99.90;;;;;;5068041;28;20029;-80
2022/01/27 00:25:53;;;;;;;37.70;21.27;;;5.60;99.90;;;;;;5050308;28;20044;-79
2022/01/27 00:28:19;;;;;;;41.22;21.88;;;5.60;99.90;;;;;;5050201;28;20040;-80
2022/01/27 00:30:44;;;;;;;38.67;20.20;;;5.60;99.90;;;;;;5036676;28;20041;-80
2022/01/27 00:33:10;;;;;;;43.00;21.20;;;5.70;99.90;;;;;;5052438;28;20076;-80
2022/01/27 00:35:36;;;;;;;39.85;20.42;;;5.70;99.90;;;;;;5050663;28;20047;-80
2022/01/27 00:38:02;;;;;;;39.17;20.75;;;5.70;99.90;;;;;;5048914;28;20060;-80
2022/01/27 00:40:28;;;;;;;38.65;20.25;;;5.70;99.90;;;;;;5062598;28;20052;-80
2022/01/27 00:42:53;;;;;;;33.60;18.27;;;5.80;99.90;;;;;;5067047;28;20064;-80
2022/01/27 00:45:19;;;;;;;35.58;19.98;;;5.80;99.90;;;;;;5066989;28;20069;-80
2022/01/27 00:47:45;;;;;;;36.50;19.75;;;5.70;99.90;;;;;;5067139;28;20037;-80
2022/01/27 00:50:11;;;;;;;41.55;22.33;;;5.70;99.90;;;;;;5064799;28;20071;-80
2022/01/27 00:52:41;;;;;;;37.78;19.27;;;5.90;99.90;;;;;;5046625;28;20071;-80
2022/01/27 00:55:09;;;;;;;37.90;20.33;;;5.70;99.90;;;;;;5066904;28;20110;-80
2022/01/27 01:00:09;;;;;;;34.55;19.15;;;5.70;99.90;;;;;;5049089;28;20083;-81
2022/01/27 01:03:01;;;;;;;29.63;17.58;;;5.60;99.90;;;;;;5033127;28;20163;-80
2022/01/27 01:10:00;;;;;;;37.45;19.67;;;5.70;99.90;;;;;;5013577;28;20042;-79
2022/01/27 01:21:45;;;;;;;38.78;22.80;;;5.60;99.90;;;;;;5071063;28;20087;-79
2022/01/27 01:32:46;;;;;;;;;;;5.70;99.90;;;;;;5024408;28;20098;-80
2022/01/27 01:35:12;;;;;;;34.00;18.15;;;5.90;99.90;;;;;;5067879;28;19939;-79
2022/01/27 01:37:41;;;;;;;30.58;16.63;;;5.60;99.90;;;;;;5069078;28;20108;-80
2022/01/27 01:40:16;;;;;;;24.65;17.60;;;5.60;99.90;;;;;;5015010;28;20050;-79
2022/01/27 01:42:43;;;;;;;33.67;17.65;;;5.70;99.90;;;;;;5049162;28;20070;-80
2022/01/27 01:45:14;;;;;;;37.17;19.02;;;5.70;99.90;;;;;;5032358;28;20097;-80
2022/01/27 01:47:40;;;;;;;33.85;18.80;;;5.70;99.90;;;;;;5052177;28;20041;-79
2022/01/27 01:50:08;;;;;;;43.05;19.23;;;5.70;99.90;;;;;;5069181;28;20044;-80
2022/01/27 01:52:34;;;;;;;34.10;18.08;;;5.70;99.90;;;;;;5066229;28;20047;-80
2022/01/27 01:55:00;;;;;;;28.85;17.00;;;5.70;99.90;;;;;;5069967;28;20041;-79
2022/01/27 01:57:27;;;;;;;35.58;20.00;;;5.70;99.90;;;;;;5066850;28;20104;-80
2022/01/27 01:59:53;;;;;;;30.10;17.92;;;5.70;99.90;;;;;;5067229;28;20049;-79
2022/01/27 02:02:18;;;;;;;34.58;19.23;;;5.70;99.90;;;;;;5066514;28;20095;-79
2022/01/27 02:04:45;;;;;;;29.50;17.08;;;5.70;99.90;;;;;;5064594;28;20047;-80
2022/01/27 02:18:07;;;;;;;29.65;17.27;;;5.70;99.90;;;;;;5068341;28;20040;-80
2022/01/27 02:20:34;;;;;;;33.83;15.50;;;5.70;99.90;;;;;;5059283;28;20040;-80
2022/01/27 02:23:00;;;;;;;34.97;19.15;;;5.70;99.90;;;;;;5051328;28;20037;-79
2022/01/27 02:25:26;;;;;;;28.85;16.33;;;5.80;99.90;;;;;;5031134;28;20206;-80
2022/01/27 02:27:53;;;;;;;24.55;13.45;;;5.80;99.90;;;;;;5065706;28;20539;-80
2022/01/27 02:30:19;;;;;;;26.67;14.68;;;5.70;99.90;;;;;;5047661;28;20037;-79
2022/01/27 02:32:45;;;;;;;31.60;16.95;;;5.70;99.90;;;;;;5047296;28;20045;-80
2022/01/27 02:35:11;;;;;;;31.10;16.13;;;5.70;99.90;;;;;;5056775;28;20083;-78
2022/01/27 02:37:36;;;;;;;27.35;17.35;;;5.70;99.90;;;;;;5066132;28;20037;-80
2022/01/27 02:40:03;;;;;;;29.67;17.85;;;5.70;99.90;;;;;;5030649;28;20049;-80
2022/01/27 02:42:34;;;;;;;31.70;17.25;;;5.70;99.90;;;;;;5064035;28;20052;-80
2022/01/27 02:45:08;;;;;;;35.38;19.30;;;5.70;99.90;;;;;;5065028;28;20068;-79
2022/01/27 02:47:34;;;;;;;30.58;16.83;;;5.70;99.90;;;;;;5038194;28;20068;-79
2022/01/27 02:49:59;;;;;;;33.08;17.90;;;5.70;99.90;;;;;;5032553;28;20048;-79
2022/01/27 02:52:28;;;;;;;36.72;20.58;;;5.70;99.90;;;;;;5036847;28;20088;-79
2022/01/27 02:54:53;;;;;;;30.25;17.40;;;5.70;99.90;;;;;;5033554;28;20052;-79
2022/01/27 02:57:33;;;;;;;33.58;16.35;;;5.70;99.90;;;;;;5064906;28;20417;-79
2022/01/27 02:59:59;;;;;;;28.38;17.20;;;5.70;99.90;;;;;;5014960;28;20040;-79
2022/01/27 03:02:25;;;;;;;33.33;19.13;;;5.70;99.90;;;;;;5047161;28;20128;-79
2022/01/27 03:04:51;;;;;;;34.05;19.70;;;5.70;99.90;;;;;;5065641;28;20044;-80
2022/01/27 03:07:16;;;;;;;46.95;22.83;;;5.70;99.90;;;;;;5049569;28;20040;-80
2022/01/27 03:09:42;;;;;;;36.42;19.98;;;5.70;99.90;;;;;;5065478;28;20127;-79
2022/01/27 03:12:13;;;;;;;34.05;18.60;;;5.70;99.90;;;;;;5066825;28;20029;-80
2022/01/27 03:14:40;;;;;;;37.00;21.35;;;5.70;99.90;;;;;;5063527;28;20045;-79
2022/01/27 03:17:07;;;;;;;31.98;17.55;;;5.70;99.90;;;;;;5064564;28;20051;-80
2022/01/27 03:19:34;;;;;;;31.80;19.38;;;5.70;99.90;;;;;;5065141;28;20049;-79
2022/01/27 03:22:03;;;;;;;37.45;20.45;;;5.70;99.90;;;;;;5051774;28;20495;-80
2022/01/27 03:24:29;;;;;;;28.40;16.05;;;5.70;99.90;;;;;;5064933;28;20037;-79
2022/01/27 03:26:56;;;;;;;37.22;21.65;;;5.70;99.90;;;;;;5060737;28;20033;-80
2022/01/27 03:29:22;;;;;;;37.22;20.08;;;5.70;99.90;;;;;;5065034;28;20056;-80
2022/01/27 03:31:48;;;;;;;37.47;22.10;;;5.70;99.90;;;;;;5064527;28;20112;-80
2022/01/27 03:34:14;;;;;;;31.50;18.20;;;5.80;99.90;;;;;;5062805;28;20071;-79
2022/01/27 03:36:43;;;;;;;33.45;18.33;;;5.80;99.90;;;;;;5026421;28;20146;-80
2022/01/27 03:39:09;;;;;;;41.78;21.95;;;5.80;99.90;;;;;;5063330;28;20056;-80
2022/01/27 03:41:37;;;;;;;35.08;19.83;;;5.80;99.90;;;;;;5065194;28;20037;-80
2022/01/27 03:44:05;;;;;;;38.85;21.75;;;5.80;99.90;;;;;;5065842;28;20037;-79
2022/01/27 03:46:30;;;;;;;37.97;21.08;;;5.70;99.90;;;;;;5048955;28;20305;-79
2022/01/27 03:48:56;;;;;;;36.13;18.00;;;5.80;99.90;;;;;;5064696;28;20226;-80
2022/01/27 03:51:22;;;;;;;32.63;18.20;;;5.80;99.90;;;;;;5065311;28;20068;-79
2022/01/27 03:53:47;;;;;;;38.30;20.35;;;6.00;99.90;;;;;;5045727;28;20045;-80
2022/01/27 03:56:13;;;;;;;33.50;18.80;;;5.70;99.90;;;;;;5067498;28;20047;-79
2022/01/27 03:58:38;;;;;;;35.95;18.80;;;5.70;99.90;;;;;;5064962;28;20044;-80
2022/01/27 04:01:05;;;;;;;37.45;20.73;;;5.80;99.90;;;;;;5066764;28;20040;-80
2022/01/27 04:03:33;;;;;;;40.50;20.85;;;5.80;99.90;;;;;;5064582;28;20033;-79
2022/01/27 04:06:06;;;;;;;36.85;19.42;;;5.80;99.90;;;;;;5064456;28;20539;-80
2022/01/27 04:08:33;;;;;;;37.83;19.42;;;5.80;99.90;;;;;;5045231;28;20389;-79
2022/01/27 04:10:58;;;;;;;37.10;20.52;;;5.80;99.90;;;;;;5063204;28;20571;-79
2022/01/27 04:13:24;;;;;;;38.85;21.30;;;5.80;99.90;;;;;;5064866;28;20063;-80
2022/01/27 04:15:50;;;;;;;38.50;20.52;;;5.80;99.90;;;;;;5052816;28;20400;-79
2022/01/27 04:18:15;;;;;;;36.88;19.98;;;5.90;99.90;;;;;;5064662;28;20089;-79
2022/01/27 04:20:42;;;;;;;43.63;21.77;;;5.80;99.90;;;;;;5058002;28;20482;-79
2022/01/27 04:23:08;;;;;;;35.03;19.85;;;5.80;99.90;;;;;;5051698;28;20068;-79
2022/01/27 04:25:37;;;;;;;38.28;21.40;;;5.80;99.90;;;;;;5062142;28;20047;-79
2022/01/27 04:28:07;;;;;;;36.53;19.13;;;5.70;99.90;;;;;;5055084;28;20486;-79
2022/01/27 04:30:33;;;;;;;32.80;18.35;;;5.80;99.90;;;;;;5054731;28;20045;-79
2022/01/27 04:33:01;;;;;;;40.63;22.20;;;5.80;99.90;;;;;;5054786;28;20052;-79
2022/01/27 04:35:31;;;;;;;41.97;23.30;;;5.80;99.90;;;;;;5052154;28;20091;-80
2022/01/27 04:46:10;;;;;;;41.22;23.45;;;5.90;99.90;;;;;;5040726;28;20120;-79
2022/01/27 04:48:26;;;;;;;36.03;19.75;;;5.90;99.90;;;;;;5047833;28;20044;-79
2022/01/27 04:50:54;;;;;;;38.47;22.20;;;5.90;99.90;;;;;;5042190;28;20060;-79
2022/01/27 04:53:34;;;;;;;37.90;20.38;;;5.90;99.90;;;;;;5040624;28;20041;-80
2022/01/27 04:56:00;;;;;;;39.00;20.23;;;5.80;99.90;;;;;;5033854;28;20142;-80
2022/01/27 04:58:32;;;;;;;38.20;22.67;;;5.80;99.90;;;;;;5042618;28;20044;-79
2022/01/27 05:01:00;;;;;;;40.20;23.15;;;5.80;99.90;;;;;;5042217;28;20045;-80
2022/01/27 05:06:04;;;;;;;40.35;22.42;;;5.80;99.90;;;;;;5052358;28;20143;-79
2022/01/27 05:08:30;;;;;;;41.13;21.17;;;5.80;99.90;;;;;;5058259;28;20068;-79
2022/01/27 05:11:03;;;;;;;39.05;24.15;;;5.90;99.90;;;;;;5057359;28;20028;-80
2022/01/27 05:13:37;;;;;;;48.28;23.80;;;5.90;99.90;;;;;;5042376;28;20056;-79
2022/01/27 05:16:03;;;;;;;35.70;19.15;;;5.90;99.90;;;;;;5042681;28;20412;-80
2022/01/27 05:18:28;;;;;;;31.23;18.67;;;5.80;99.90;;;;;;5041155;28;20040;-80
2022/01/27 05:20:54;;;;;;;48.85;21.85;;;5.80;99.90;;;;;;5044701;28;20052;-80
2022/01/27 05:23:19;;;;;;;42.05;23.60;;;5.80;99.90;;;;;;5025351;28;20097;-79
2022/01/27 05:25:45;;;;;;;42.75;23.35;;;5.80;99.90;;;;;;5050471;28;20066;-79
2022/01/27 05:28:11;;;;;;;38.53;21.23;;;5.90;99.90;;;;;;5053667;28;20041;-79
2022/01/27 05:30:36;;;;;;;38.50;20.35;;;5.90;99.90;;;;;;5050823;28;20052;-80
2022/01/27 05:33:02;;;;;;;43.15;21.25;;;6.00;99.90;;;;;;5052628;28;20060;-80
2022/01/27 05:35:28;;;;;;;42.22;23.20;;;6.00;99.90;;;;;;5067755;28;20033;-80
2022/01/27 05:37:54;;;;;;;45.45;23.75;;;6.00;99.90;;;;;;5069390;28;20036;-81
2022/01/27 05:40:19;;;;;;;54.55;26.33;;;6.00;99.90;;;;;;5071860;28;20069;-81
2022/01/27 05:42:45;;;;;;;37.65;22.67;;;5.90;99.90;;;;;;5065125;28;20037;-82
2022/01/27 05:45:11;;;;;;;42.90;22.88;;;5.90;99.90;;;;;;5059038;28;20040;-82
2022/01/27 05:47:36;;;;;;;40.85;21.98;;;5.80;99.90;;;;;;5068566;28;20036;-82
2022/01/27 05:50:03;;;;;;;47.65;27.73;;;5.80;99.90;;;;;;5056416;28;20048;-82
2022/01/27 05:52:28;;;;;;;48.75;27.70;;;5.80;99.90;;;;;;5056224;28;20086;-83
2022/01/27 05:54:54;;;;;;;54.08;29.15;;;5.70;99.90;;;;;;5059433;28;20033;-82
2022/01/27 05:57:19;;;;;;;47.30;25.73;;;5.70;99.90;;;;;;5064122;28;20423;-81
2022/01/27 05:59:45;;;;;;;56.10;27.08;;;5.70;99.90;;;;;;5056406;28;20055;-81
2022/01/27 06:02:10;;;;;;;48.25;26.45;;;5.70;99.90;;;;;;5048310;28;20063;-81
2022/01/27 06:04:36;;;;;;;65.55;34.58;;;5.70;99.90;;;;;;5051825;28;20053;-82
2022/01/27 06:07:02;;;;;;;59.75;32.50;;;5.70;99.90;;;;;;5052142;28;20044;-82
2022/01/27 06:09:27;;;;;;;53.65;25.60;;;5.70;99.90;;;;;;5052204;28;20044;-82
2022/01/27 06:11:53;;;;;;;60.92;32.22;;;5.70;99.90;;;;;;5051195;28;20044;-82
2022/01/27 06:14:18;;;;;;;58.53;30.50;;;5.70;99.90;;;;;;5051889;28;20040;-82
2022/01/27 06:16:45;;;;;;;53.65;25.80;;;5.70;99.90;;;;;;5051242;28;20137;-83
2022/01/27 06:19:11;;;;;;;55.83;30.48;;;5.60;99.90;;;;;;5051652;28;20021;-82
2022/01/27 06:21:37;;;;;;;63.28;33.05;;;5.60;99.90;;;;;;5054008;28;20045;-83
2022/01/27 06:24:03;;;;;;;53.88;26.80;;;5.70;99.90;;;;;;5055890;28;20043;-83
2022/01/27 06:26:29;;;;;;;52.65;27.10;;;5.70;99.90;;;;;;5055395;28;20060;-82
2022/01/27 06:28:56;;;;;;;66.43;30.30;;;5.60;99.90;;;;;;5034027;28;20052;-82
2022/01/27 06:31:22;;;;;;;60.70;30.00;;;5.70;99.90;;;;;;5051152;28;20336;-83
2022/01/27 06:33:47;;;;;;;64.80;32.85;;;5.70;99.90;;;;;;5049492;28;20037;-82
2022/01/27 06:36:13;;;;;;;62.38;30.85;;;5.70;99.90;;;;;;5034015;28;20037;-82
2022/01/27 06:38:38;;;;;;;62.08;29.90;;;5.70;99.90;;;;;;5050813;28;20078;-82
2022/01/27 06:41:04;;;;;;;61.90;29.63;;;5.80;99.90;;;;;;5052163;28;20074;-82
2022/01/27 06:43:30;;;;;;;66.88;31.48;;;5.80;99.90;;;;;;5050451;28;20044;-82
2022/01/27 06:45:55;;;;;;;55.03;28.05;;;5.80;99.90;;;;;;5050315;28;20083;-80
2022/01/27 06:48:21;;;;;;;54.47;29.67;;;5.80;99.90;;;;;;5051425;28;20151;-81
2022/01/27 06:50:52;;;;;;;56.97;28.83;;;5.90;99.90;;;;;;5050738;28;20063;-80
2022/01/27 06:53:18;;;;;;;55.35;25.23;;;5.90;99.90;;;;;;5050790;28;20047;-81
2022/01/27 06:55:43;;;;;;;45.97;22.38;;;5.90;99.90;;;;;;5049498;28;20124;-81
2022/01/27 06:58:09;;;;;;;46.80;21.30;;;6.00;99.90;;;;;;5048866;28;20040;-83
2022/01/27 07:00:35;;;;;;;47.30;27.08;;;6.00;99.90;;;;;;5048297;28;20047;-81
2022/01/27 07:03:00;;;;;;;45.05;23.48;;;6.00;99.90;;;;;;5047249;28;20124;-81
2022/01/27 07:05:26;;;;;;;50.97;26.73;;;6.00;99.90;;;;;;5048420;28;20127;-82
2022/01/27 07:07:51;;;;;;;49.05;24.80;;;6.10;99.90;;;;;;5050173;28;20037;-82
2022/01/27 07:10:17;;;;;;;46.25;22.77;;;6.10;99.90;;;;;;5050455;28;20037;-82
2022/01/27 07:12:42;;;;;;;51.00;24.00;;;6.10;99.90;;;;;;5035868;28;20100;-82
2022/01/27 07:15:09;;;;;;;45.28;23.83;;;6.10;99.90;;;;;;5052060;28;20068;-82
2022/01/27 07:17:35;;;;;;;41.00;20.50;;;6.10;99.90;;;;;;5051812;28;20041;-81
2022/01/27 07:20:00;;;;;;;40.20;22.77;;;6.20;99.90;;;;;;5052378;28;20082;-82
2022/01/27 07:22:26;;;;;;;44.33;21.92;;;6.20;99.90;;;;;;5056032;28;20037;-83
2022/01/27 07:24:51;;;;;;;33.25;17.83;;;6.20;99.90;;;;;;5055719;28;20048;-81
2022/01/27 07:27:17;;;;;;;45.08;23.38;;;6.20;99.90;;;;;;5055800;28;20048;-82
2022/01/27 07:29:44;;;;;;;40.47;20.83;;;6.20;99.90;;;;;;5035177;28;20124;-80
2022/01/27 07:32:09;;;;;;;33.50;17.77;;;6.30;99.90;;;;;;5046305;28;20045;-81
2022/01/27 07:34:35;;;;;;;39.83;20.13;;;6.30;99.90;;;;;;5044693;28;20048;-81
2022/01/27 07:37:02;;;;;;;33.67;17.67;;;6.30;99.90;;;;;;5044715;28;20055;-81
2022/01/27 07:39:28;;;;;;;32.08;16.58;;;6.40;99.90;;;;;;5043849;28;20473;-80
2022/01/27 07:41:57;;;;;;;29.50;17.42;;;6.40;99.90;;;;;;5043768;28;20037;-81
2022/01/27 07:44:24;;;;;;;34.60;16.65;;;6.40;99.90;;;;;;5044048;28;20125;-82
2022/01/27 07:46:49;;;;;;;28.70;16.52;;;6.40;99.90;;;;;;5048239;28;20060;-81
2022/01/27 07:49:15;;;;;;;35.38;17.17;;;6.50;99.90;;;;;;5048075;28;20045;-81
2022/01/27 07:51:40;;;;;;;22.35;13.00;;;6.50;99.90;;;;;;5031446;28;20072;-82
2022/01/27 07:54:06;;;;;;;30.42;13.80;;;6.50;99.90;;;;;;5047649;28;20065;-80
2022/01/27 07:56:32;;;;;;;23.52;12.32;;;6.50;99.90;;;;;;5043406;28;20499;-81
2022/01/27 07:58:57;;;;;;;27.42;14.75;;;6.60;99.90;;;;;;5044423;28;20076;-82
2022/01/27 08:01:23;;;;;;;24.17;14.15;;;6.60;99.90;;;;;;5046021;28;20041;-82
2022/01/27 08:03:49;;;;;;;20.30;12.18;;;6.60;99.90;;;;;;5043445;28;20033;-82
2022/01/27 08:06:14;;;;;;;20.23;11.25;;;6.50;99.90;;;;;;5043705;28;20068;-83
2022/01/27 08:08:40;;;;;;;24.25;12.32;;;6.60;99.90;;;;;;5043376;28;20041;-83
2022/01/27 08:11:05;;;;;;;29.55;15.45;;;6.60;99.90;;;;;;5043750;28;20044;-81
2022/01/27 08:13:31;;;;;;;25.60;13.18;;;6.60;99.90;;;;;;5042466;28;20052;-84
2022/01/27 08:15:57;;;;;;;25.23;14.55;;;6.60;99.90;;;;;;5042882;28;20037;-82
2022/01/27 08:18:22;;;;;;;26.48;15.23;;;6.60;99.90;;;;;;5042035;28;20055;-83
2022/01/27 08:20:49;;;;;;;27.77;14.80;;;6.70;99.90;;;;;;5025658;28;20064;-82
2022/01/27 08:23:15;;;;;;;29.60;15.68;;;6.70;99.90;;;;;;5040061;28;20055;-81
2022/01/27 08:25:42;;;;;;;30.35;15.05;;;6.70;99.90;;;;;;5040580;28;20479;-82
2022/01/27 08:28:20;;;;;;;27.67;15.50;;;6.80;99.90;;;;;;5040083;28;20045;-82
2022/01/27 08:30:49;;;;;;;34.13;17.85;;;6.80;99.90;;;;;;5041708;28;20037;-82
2022/01/27 08:33:18;;;;;;;33.92;17.90;;;6.80;99.90;;;;;;5041723;28;20051;-83
2022/01/27 08:35:44;;;;;;;40.53;19.48;;;6.80;99.90;;;;;;5039141;28;20392;-82
2022/01/27 08:38:09;;;;;;;32.22;16.00;;;6.90;99.90;;;;;;5039500;28;20032;-83
2022/01/27 08:40:35;;;;;;;29.48;17.13;;;6.90;99.90;;;;;;5038697;28;20068;-83
2022/01/27 08:43:01;;;;;;;40.28;17.13;;;6.90;99.90;;;;;;5038953;28;20035;-82
2022/01/27 08:45:27;;;;;;;33.30;18.08;;;7.00;99.90;;;;;;5039559;28;20033;-82
2022/01/27 08:47:57;;;;;;;31.48;14.60;;;7.00;99.90;;;;;;5038855;28;20055;-82
2022/01/27 08:50:24;;;;;;;39.50;17.95;;;7.00;99.90;;;;;;5039461;28;20132;-82
2022/01/27 08:52:50;;;;;;;37.92;15.48;;;7.20;99.90;;;;;;5037912;28;20044;-83
2022/01/27 08:55:16;;;;;;;46.20;16.17;;;7.20;99.90;;;;;;5038388;28;20412;-82
2022/01/27 08:57:42;;;;;;;30.33;13.88;;;7.30;99.90;;;;;;5040061;28;20037;-82
2022/01/27 09:00:10;;;;;;;35.50;13.95;;;7.30;99.90;;;;;;5038156;28;20059;-81
2022/01/27 09:02:35;;;;;;;29.23;14.57;;;7.30;99.90;;;;;;5038224;28;20041;-82
2022/01/27 09:05:01;;;;;;;31.17;12.63;;;7.30;99.90;;;;;;5038048;28;20048;-81
2022/01/27 09:07:27;;;;;;;25.10;12.85;;;7.30;99.90;;;;;;5038360;28;20127;-82
2022/01/27 09:09:52;;;;;;;27.17;13.25;;;7.40;99.90;;;;;;5037808;28;20045;-82
2022/01/27 09:12:18;;;;;;;28.42;13.80;;;7.40;99.90;;;;;;5038556;28;20045;-81
2022/01/27 09:14:44;;;;;;;32.25;14.35;;;7.40;99.90;;;;;;5039088;28;20065;-82
2022/01/27 09:17:11;;;;;;;26.98;11.00;;;7.50;99.90;;;;;;5037132;28;20077;-82
2022/01/27 09:19:41;;;;;;;22.35;9.77;;;7.50;99.90;;;;;;5038353;28;20051;-82
2022/01/27 09:22:12;;;;;;;20.48;10.52;;;7.50;99.90;;;;;;5037589;28;20391;-81
2022/01/27 09:24:48;;;;;;;21.40;10.35;;;7.50;99.90;;;;;;5036882;28;20041;-81
2022/01/27 09:27:14;;;;;;;24.08;8.98;;;7.50;99.90;;;;;;5020267;28;20404;-81
2022/01/27 09:29:40;;;;;;;22.17;9.65;;;7.50;99.90;;;;;;5038699;28;20045;-83
2022/01/27 09:32:06;;;;;;;23.27;9.38;;;7.50;99.90;;;;;;5039187;28;20493;-83
2022/01/27 09:34:32;;;;;;;18.73;8.68;;;7.50;99.90;;;;;;5039122;28;20044;-83
2022/01/27 09:37:02;;;;;;;19.42;9.80;;;7.60;99.90;;;;;;5040318;28;20052;-82
2022/01/27 09:39:28;;;;;;;22.80;8.27;;;7.60;99.90;;;;;;5025021;28;20109;-81
2022/01/27 09:41:56;;;;;;;25.33;11.55;;;7.60;99.90;;;;;;5040783;28;20040;-81
2022/01/27 09:44:27;;;;;;;27.20;8.07;;;7.60;99.90;;;;;;5041191;28;20492;-82
2022/01/27 09:46:56;;;;;;;19.50;7.03;;;7.60;99.90;;;;;;5041999;28;20048;-82
2022/01/27 09:49:31;;;;;;;18.50;6.65;;;7.70;99.90;;;;;;5041328;28;20511;-82
2022/01/27 09:51:56;;;;;;;14.82;6.13;;;7.80;99.90;;;;;;5042829;28;20056;-84
2022/01/27 09:54:22;;;;;;;13.40;6.75;;;7.80;99.90;;;;;;5042337;28;20040;-82
2022/01/27 09:56:49;;;;;;;25.52;5.90;;;7.80;99.90;;;;;;5041867;28;20549;-81
2022/01/27 09:59:15;;;;;;;16.85;6.05;;;7.80;99.90;;;;;;5041595;28;20041;-81
2022/01/27 10:02:02;;;;;;;15.32;4.65;;;7.90;99.90;;;;;;5041923;28;20049;-81
2022/01/27 10:04:49;;;;;;;15.85;5.25;;;7.90;99.90;;;;;;5041088;28;20557;-81
2022/01/27 10:07:19;;;;;;;21.52;5.78;;;7.90;99.90;;;;;;5041267;28;20049;-81
2022/01/27 10:10:00;;;;;;;20.70;5.70;;;8.00;99.90;;;;;;5040840;28;20045;-81
2022/01/27 10:12:40;;;;;;;12.85;4.03;;;8.00;99.90;;;;;;5040826;28;20124;-81
2022/01/27 10:15:21;;;;;;;14.27;3.63;;;8.10;99.90;;;;;;5058066;28;20052;-81
2022/01/27 10:18:20;;;;;;;13.98;3.92;;;8.10;99.90;;;;;;5040806;28;20037;-81
2022/01/27 10:20:50;;;;;;;11.55;4.43;;;8.10;99.90;;;;;;5010047;28;20056;-81
2022/01/27 10:23:24;;;;;;;16.10;4.80;;;8.20;99.90;;;;;;5058776;28;20051;-81
2022/01/27 10:25:54;;;;;;;10.93;4.25;;;8.30;99.90;;;;;;5025320;28;20040;-81
2022/01/27 10:28:37;;;;;;;12.95;4.00;;;8.30;99.90;;;;;;5041694;28;20056;-83
2022/01/27 10:31:13;;;;;;;15.50;4.75;;;8.40;99.90;;;;;;5041836;28;20101;-82
2022/01/27 10:34:04;;;;;;;11.27;4.00;;;8.30;99.90;;;;;;5041330;28;20041;-82
2022/01/27 10:36:41;;;;;;;10.98;3.63;;;8.40;99.90;;;;;;5004878;28;20038;-81
2022/01/27 10:39:15;;;;;;;11.30;4.70;;;8.30;99.90;;;;;;5022178;28;20396;-81
2022/01/27 10:42:06;;;;;;;13.20;3.60;;;8.30;99.90;;;;;;5038924;28;20045;-81
2022/01/27 10:44:43;;;;;;;10.50;3.53;;;8.30;99.90;;;;;;5041542;28;20041;-81
2022/01/27 10:47:20;;;;;;;7.07;2.97;;;8.30;99.90;;;;;;5027331;28;20084;-82
2022/01/27 10:49:51;;;;;;;11.38;3.92;;;8.40;99.90;;;;;;5041965;28;20120;-82
2022/01/27 10:52:47;;;;;;;15.00;4.00;;;8.40;99.90;;;;;;5043266;28;20038;-82
2022/01/27 10:55:17;;;;;;;13.82;3.50;;;8.40;99.90;;;;;;5007524;28;20064;-83
2022/01/27 10:57:49;;;;;;;13.07;3.67;;;8.50;99.90;;;;;;5022318;28;20120;-81
2022/01/27 11:00:18;;;;;;;12.55;3.28;;;8.50;99.90;;;;;;5038652;28;20400;-80
2022/01/27 11:02:58;;;;;;;13.82;3.47;;;8.60;99.90;;;;;;5023259;28;20100;-80
2022/01/27 11:05:27;;;;;;;14.70;3.63;;;8.60;99.90;;;;;;5039058;28;20037;-82
2022/01/27 11:07:53;;;;;;;11.00;3.78;;;8.70;99.90;;;;;;5023299;28;20042;-81
2022/01/27 11:10:20;;;;;;;11.13;4.97;;;8.70;99.90;;;;;;5038832;28;20419;-81
2022/01/27 11:12:46;;;;;;;12.73;3.05;;;8.80;99.90;;;;;;5058654;28;20033;-81
2022/01/27 11:15:13;;;;;;;8.68;2.70;;;8.80;99.90;;;;;;5058345;28;20037;-81
2022/01/27 11:17:41;;;;;;;13.02;3.67;;;8.80;99.90;;;;;;5057312;28;20411;-81
2022/01/27 11:20:29;;;;;;;13.55;3.95;;;8.80;99.90;;;;;;5041384;28;20056;-80
2022/01/27 11:27:53;;;;;;;19.13;2.80;;;8.70;99.90;;;;;;5041384;28;20049;-82
2022/01/27 11:30:48;;;;;;;15.30;2.83;;;8.70;99.90;;;;;;5041232;28;20041;-82
2022/01/27 11:33:14;;;;;;;9.73;4.10;;;8.70;99.90;;;;;;5041032;28;20036;-82
2022/01/27 11:35:41;;;;;;;9.38;4.20;;;8.70;99.90;;;;;;5040831;28;20041;-81
2022/01/27 11:38:08;;;;;;;17.05;4.88;;;8.80;99.90;;;;;;5041778;28;20052;-82
2022/01/27 11:40:45;;;;;;;7.38;2.28;;;8.80;99.90;;;;;;5042890;28;20045;-81
2022/01/27 11:43:18;;;;;;;14.55;3.05;;;8.80;99.90;;;;;;5041101;28;20089;-81
2022/01/27 11:45:49;;;;;;;12.00;3.35;;;8.90;99.90;;;;;;5066000;28;20526;-81
2022/01/27 11:48:23;;;;;;;12.35;3.10;;;8.90;99.90;;;;;;5060789;28;20041;-80
2022/01/27 11:50:58;;;;;;;12.10;2.42;;;8.90;99.90;;;;;;5059851;28;20124;-81
2022/01/27 11:53:38;;;;;;;10.85;2.88;;;8.90;99.90;;;;;;5060995;28;20050;-82
2022/01/27 11:56:05;;;;;;;11.63;2.97;;;9.00;99.90;;;;;;5062027;28;20048;-82
2022/01/27 11:58:43;;;;;;;9.93;2.40;;;9.00;99.90;;;;;;5060681;28;20053;-81
2022/01/27 12:01:11;;;;;;;15.00;2.90;;;9.00;99.90;;;;;;5051074;28;20045;-81
2022/01/27 12:03:38;;;;;;;17.25;3.17;;;8.90;99.90;;;;;;5039575;28;20051;-81
2022/01/27 12:06:22;;;;;;;11.13;2.15;;;8.90;99.90;;;;;;5039179;28;20063;-80
2022/01/27 12:08:48;;;;;;;13.63;2.30;;;9.00;99.90;;;;;;5040032;28;20052;-81
2022/01/27 12:11:43;;;;;;;10.07;2.15;;;9.00;99.90;;;;;;5040898;28;20116;-81
2022/01/27 12:14:08;;;;;;;9.90;1.77;;;9.00;99.90;;;;;;5039127;28;20047;-81
2022/01/27 12:19:08;;;;;;;12.32;2.30;;;9.20;99.90;;;;;;5039109;28;20550;-81
2022/01/27 12:21:35;;;;;;;10.73;2.70;;;9.20;99.90;;;;;;5041502;28;20080;-82
2022/01/27 12:24:13;;;;;;;16.35;4.30;;;9.30;99.90;;;;;;5040443;28;20507;-82
2022/01/27 12:26:46;;;;;;;8.90;2.17;;;9.30;99.90;;;;;;5039817;28;20116;-81
2022/01/27 12:29:40;;;;;;;11.98;2.00;;;9.30;99.90;;;;;;5039233;28;20073;-81
2022/01/27 12:32:29;;;;;;;11.63;2.60;;;9.30;99.90;;;;;;5039524;28;20029;-83
2022/01/27 12:35:01;;;;;;;12.15;2.33;;;9.40;99.90;;;;;;5039217;28;20324;-82
2022/01/27 12:37:38;;;;;;;11.80;2.28;;;9.30;99.90;;;;;;5041158;28;20071;-82
2022/01/27 12:40:15;;;;;;;16.17;2.83;;;9.30;99.90;;;;;;5042643;28;20144;-84
2022/01/27 12:42:58;;;;;;;8.90;1.63;;;9.20;99.90;;;;;;5042426;28;20048;-83
2022/01/27 12:45:28;;;;;;;8.65;2.65;;;9.10;99.90;;;;;;5041587;28;20041;-82
2022/01/27 12:47:55;;;;;;;6.75;1.42;;;9.10;99.90;;;;;;5053438;28;20048;-84
2022/01/27 12:50:23;;;;;;;9.82;2.13;;;9.00;99.90;;;;;;5061816;28;20063;-82
2022/01/27 12:52:52;;;;;;;13.77;2.20;;;9.00;99.90;;;;;;5062238;28;20059;-82
2022/01/27 12:55:20;;;;;;;12.15;1.73;;;9.00;99.90;;;;;;5062124;28;20032;-83
2022/01/27 12:58:13;;;;;;;10.40;2.72;;;9.00;99.90;;;;;;5064240;28;20096;-83
2022/01/27 13:00:41;;;;;;;6.82;1.67;;;9.00;99.90;;;;;;5056611;28;20041;-83
2022/01/27 13:03:07;;;;;;;14.48;2.63;;;8.90;99.90;;;;;;5073026;28;20041;-84
2022/01/27 13:05:37;;;;;;;13.00;2.22;;;8.90;99.90;;;;;;5056388;28;20033;-83
2022/01/27 13:08:12;;;;;;;11.13;2.25;;;8.80;99.90;;;;;;5035815;28;20052;-85
2022/01/27 13:10:39;;;;;;;15.57;1.95;;;8.80;99.90;;;;;;5057607;28;20037;-84
2022/01/27 13:13:12;;;;;;;15.07;2.10;;;8.90;99.90;;;;;;5057308;28;20098;-82
2022/01/27 13:15:38;;;;;;;11.00;2.35;;;8.90;99.90;;;;;;5056185;28;20045;-84
2022/01/27 13:18:17;;;;;;;14.63;2.08;;;9.00;99.90;;;;;;5047980;28;20048;-82
2022/01/27 13:20:46;;;;;;;11.10;3.17;;;9.00;99.90;;;;;;5045610;28;20037;-82
2022/01/27 13:23:21;;;;;;;11.30;2.22;;;9.10;99.90;;;;;;5043960;28;20075;-83
2022/01/27 13:25:54;;;;;;;13.20;3.10;;;9.10;99.90;;;;;;5044505;28;20049;-81
2022/01/27 13:28:26;;;;;;;14.70;1.92;;;9.10;99.90;;;;;;5061444;28;20043;-83
2022/01/27 13:30:54;;;;;;;9.80;1.98;;;9.10;99.90;;;;;;5060709;28;20051;-80
2022/01/27 13:33:24;;;;;;;11.95;1.40;;;9.10;99.90;;;;;;5060412;28;20041;-82
2022/01/27 13:35:51;;;;;;;15.20;3.00;;;9.10;99.90;;;;;;5063582;28;20086;-81
2022/01/27 13:38:27;;;;;;;18.80;4.32;;;9.10;99.90;;;;;;5047186;28;20080;-82
2022/01/27 13:41:18;;;;;;;11.45;2.13;;;9.20;99.90;;;;;;5044152;28;20034;-82
2022/01/27 13:43:47;;;;;;;9.85;1.95;;;9.20;99.90;;;;;;5027538;28;20049;-82
2022/01/27 13:46:37;;;;;;;12.13;3.30;;;9.20;99.90;;;;;;5042936;28;20055;-81
2022/01/27 13:49:05;;;;;;;13.93;3.30;;;9.20;99.90;;;;;;5042644;28;20067;-81
2022/01/27 13:51:31;;;;;;;16.45;2.20;;;9.20;99.90;;;;;;5041755;28;20096;-83